Time;durP1;ratioP1;P1;durP2;ratioP2;P2;SDS_P1;SDS_P2;PMS_P1;PMS_P2;Temp;Humidity;BMP_temperature;BMP_pressure;BME280_temperature;BME280_humidity;BME280_pressure;Samples;Min_cycle;Max_cycle;Signal;HPM_P1;HPM_P2
2023/06/19 00:00:06;;;;;;;11.02;9.93;;;;;;;22.56;100.00;98573.78;5063645;28;20227;-76
2023/06/19 00:02:35;;;;;;;10.13;9.13;;;;;;;22.60;100.00;98561.59;5064699;28;20191;-76
2023/06/19 00:05:05;;;;;;;12.27;9.27;;;;;;;22.62;100.00;98542.50;5064932;28;20200;-77
2023/06/19 00:07:35;;;;;;;10.15;8.98;;;;;;;22.43;100.00;98533.16;5067290;28;20192;-76
2023/06/19 00:10:05;;;;;;;9.98;9.07;;;;;;;22.32;100.00;98525.53;5066235;28;20211;-76
2023/06/19 00:12:36;;;;;;;9.60;8.57;;;;;;;22.32;100.00;98521.00;5062269;28;20275;-76
2023/06/19 00:15:05;;;;;;;9.63;8.73;;;;;;;22.30;100.00;98511.41;5067807;28;20200;-76
2023/06/19 00:17:37;;;;;;;9.38;8.52;;;;;;;22.20;100.00;98509.84;5061896;28;20250;-76
2023/06/19 00:20:07;;;;;;;10.48;9.43;;;;;;;22.22;100.00;98507.78;5105803;27;20194;-77
2023/06/19 00:22:35;;;;;;;10.05;9.10;;;;;;;22.39;100.00;98504.84;5130722;27;20198;-77
2023/06/19 00:25:04;;;;;;;10.05;9.05;;;;;;;22.27;100.00;98491.03;5129746;27;20190;-76
2023/06/19 00:27:35;;;;;;;9.85;8.95;;;;;;;22.45;100.00;98496.00;5047608;28;20635;-76
2023/06/19 00:30:04;;;;;;;9.90;9.10;;;;;;;22.34;100.00;98475.75;5050098;28;20243;-76
2023/06/19 00:32:46;;;;;;;10.60;9.57;;;;;;;21.96;100.00;98473.19;5038069;28;20208;-77
2023/06/19 00:35:17;;;;;;;10.25;9.23;;;;;;;22.14;100.00;98474.69;5042068;28;20272;-77
2023/06/19 00:37:47;;;;;;;10.10;9.20;;;;;;;22.25;100.00;98480.41;5040313;28;20315;-77
2023/06/19 00:40:27;;;;;;;10.02;9.07;;;;;;;22.06;100.00;98478.28;5047669;28;20197;-76
2023/06/19 00:42:58;;;;;;;9.40;8.50;;;;;;;22.14;100.00;98467.44;5049061;28;20185;-76
2023/06/19 00:45:27;;;;;;;10.48;8.70;;;;;;;22.22;100.00;98470.03;5047473;28;20675;-77
2023/06/19 00:47:56;;;;;;;9.02;8.23;;;;;;;22.18;100.00;98471.41;5047519;28;20216;-77
2023/06/19 00:50:25;;;;;;;9.13;8.20;;;;;;;22.21;100.00;98471.03;5044770;28;20197;-76
2023/06/19 00:52:54;;;;;;;9.55;8.60;;;;;;;22.22;100.00;98467.31;5105449;27;20197;-77
2023/06/19 00:55:23;;;;;;;9.98;8.98;;;;;;;22.08;100.00;98467.34;5126814;27;20216;-76
2023/06/19 00:57:53;;;;;;;9.52;8.60;;;;;;;21.92;100.00;98465.66;5125063;27;20222;-77
2023/06/19 01:00:23;;;;;;;11.00;8.57;;;;;;;21.94;100.00;98464.44;5132862;27;20282;-77
2023/06/19 01:02:53;;;;;;;9.40;8.50;;;;;;;21.76;100.00;98469.38;5126833;27;20240;-76
2023/06/19 01:05:22;;;;;;;11.27;9.10;;;;;;;21.62;100.00;98468.38;5125165;27;20793;-76
2023/06/19 01:07:59;;;;;;;10.93;9.30;;;;;;;21.52;100.00;98461.56;5130702;27;20194;-76
2023/06/19 01:10:30;;;;;;;10.60;9.52;;;;;;;21.38;100.00;98464.06;5132702;27;20186;-76
2023/06/19 01:13:03;;;;;;;10.23;9.25;;;;;;;21.32;100.00;98455.88;5120550;27;20273;-76
2023/06/19 01:15:33;;;;;;;10.60;9.70;;;;;;;21.38;100.00;98457.84;5132196;27;20330;-76
2023/06/19 01:18:03;;;;;;;10.60;9.55;;;;;;;21.38;100.00;98455.97;5125214;27;20215;-77
2023/06/19 01:20:33;;;;;;;10.45;9.35;;;;;;;21.26;100.00;98462.84;5130670;27;20202;-76
2023/06/19 01:23:08;;;;;;;9.65;8.70;;;;;;;21.15;100.00;98458.72;5128132;27;20222;-77
2023/06/19 01:25:37;;;;;;;11.48;9.25;;;;;;;21.10;100.00;98460.25;5125626;27;20209;-76
2023/06/19 01:28:09;;;;;;;11.25;9.35;;;;;;;21.19;100.00;98456.47;5124671;27;20239;-76
2023/06/19 01:30:39;;;;;;;9.95;9.05;;;;;;;21.08;100.00;98459.63;5125369;27;20202;-77
2023/06/19 01:33:13;;;;;;;10.23;9.07;;;;;;;21.06;100.00;98459.81;5127946;27;20206;-76
2023/06/19 01:35:44;;;;;;;9.82;8.93;;;;;;;21.08;100.00;98448.84;5078096;27;20198;-76
2023/06/19 01:38:15;;;;;;;9.20;8.25;;;;;;;21.07;100.00;98442.63;5131499;27;20685;-77
2023/06/19 01:40:44;;;;;;;9.52;8.45;;;;;;;21.09;100.00;98445.13;5128030;27;20202;-76
2023/06/19 01:43:14;;;;;;;10.05;9.15;;;;;;;21.00;100.00;98446.22;5130553;27;20194;-77
2023/06/19 01:45:43;;;;;;;9.02;8.13;;;;;;;21.13;100.00;98449.97;5129342;27;20201;-76
2023/06/19 01:48:12;;;;;;;10.75;9.13;;;;;;;21.08;100.00;98448.84;5124918;27;20190;-76
2023/06/19 01:50:40;;;;;;;10.48;9.43;;;;;;;21.08;100.00;98444.28;5121696;27;20194;-76
2023/06/19 01:53:09;;;;;;;10.52;9.40;;;;;;;21.11;100.00;98446.63;5126556;27;20209;-77
2023/06/19 01:55:39;;;;;;;11.25;9.80;;;;;;;21.12;100.00;98447.44;5127284;27;20198;-76
2023/06/19 01:58:08;;;;;;;11.20;10.20;;;;;;;21.12;100.00;98440.22;5126674;27;20218;-77
2023/06/19 02:00:37;;;;;;;10.98;9.88;;;;;;;21.21;100.00;98434.75;5134433;27;20222;-76
2023/06/19 02:03:08;;;;;;;10.32;9.43;;;;;;;21.39;100.00;98436.09;5134476;27;20191;-76
2023/06/19 02:05:39;;;;;;;10.10;9.10;;;;;;;21.41;100.00;98435.91;5064236;28;20283;-77
2023/06/19 02:08:08;;;;;;;11.13;9.05;;;;;;;21.49;100.00;98443.06;5063403;28;20715;-77
2023/06/19 02:10:36;;;;;;;9.32;8.43;;;;;;;21.08;100.00;98441.59;5064988;28;20199;-77
2023/06/19 02:13:06;;;;;;;9.77;8.77;;;;;;;20.99;100.00;98444.56;5063769;28;20644;-77
2023/06/19 02:15:34;;;;;;;10.40;8.80;;;;;;;21.11;100.00;98454.69;5030762;28;20288;-76
2023/06/19 02:18:05;;;;;;;11.40;9.35;;;;;;;20.98;100.00;98457.19;5017956;28;20217;-77
2023/06/19 02:20:34;;;;;;;9.80;8.82;;;;;;;20.95;100.00;98457.56;5024677;28;20226;-76
2023/06/19 02:23:02;;;;;;;10.05;9.23;;;;;;;20.77;100.00;98462.41;5031799;28;20559;-76
2023/06/19 02:25:31;;;;;;;11.18;9.05;;;;;;;20.72;100.00;98473.69;5070801;28;20195;-77
2023/06/19 02:28:00;;;;;;;10.18;9.18;;;;;;;20.68;100.00;98471.56;5057913;28;20202;-76
2023/06/19 02:30:30;;;;;;;10.65;9.15;;;;;;;20.53;100.00;98469.63;5064011;28;20219;-76
2023/06/19 02:32:58;;;;;;;9.63;8.80;;;;;;;20.40;100.00;98471.22;5070880;27;20217;-76
2023/06/19 02:35:28;;;;;;;9.60;8.60;;;;;;;20.41;100.00;98472.88;5122244;27;20217;-76
2023/06/19 02:37:57;;;;;;;9.60;8.68;;;;;;;20.40;100.00;98466.66;5128976;27;20229;-77
2023/06/19 02:40:26;;;;;;;10.32;8.70;;;;;;;20.38;100.00;98471.41;5131129;27;20236;-76
2023/06/19 02:42:54;;;;;;;11.52;9.48;;;;;;;20.46;100.00;98475.88;5127584;27;20210;-77
2023/06/19 02:45:22;;;;;;;16.20;9.13;;;;;;;20.54;100.00;98479.38;5129835;27;20229;-77
2023/06/19 02:47:53;;;;;;;9.85;8.85;;;;;;;20.39;100.00;98493.75;5123235;27;20649;-76
2023/06/19 02:50:22;;;;;;;10.43;9.43;;;;;;;20.43;100.00;98498.63;5125200;27;20303;-77
2023/06/19 02:52:51;;;;;;;10.32;9.18;;;;;;;20.52;100.00;98500.25;5124663;27;20266;-76
2023/06/19 02:55:19;;;;;;;10.95;9.45;;;;;;;20.49;100.00;98503.28;5128754;28;20198;-76
2023/06/19 02:57:48;;;;;;;11.25;9.25;;;;;;;20.45;100.00;98509.19;5128528;28;20214;-77
2023/06/19 03:00:17;;;;;;;11.38;9.38;;;;;;;20.46;100.00;98511.75;5125231;28;20621;-76
2023/06/19 03:02:48;;;;;;;11.25;10.15;;;;;;;20.52;100.00;98497.56;5076982;28;20187;-76
2023/06/19 03:05:18;;;;;;;9.88;8.93;;;;;;;20.52;100.00;98502.94;5066053;28;20844;-77
2023/06/19 03:07:47;;;;;;;11.32;9.43;;;;;;;20.38;100.00;98510.91;5058371;28;20263;-77
2023/06/19 03:10:15;;;;;;;11.10;9.95;;;;;;;20.49;100.00;98515.91;5063738;28;20295;-76
2023/06/19 03:12:44;;;;;;;11.90;9.70;;;;;;;20.50;100.00;98504.97;5060962;28;20200;-77
2023/06/19 03:15:12;;;;;;;11.40;10.20;;;;;;;20.68;100.00;98496.63;5062391;28;20196;-77
2023/06/19 03:17:41;;;;;;;11.15;10.05;;;;;;;20.76;100.00;98503.81;5064047;28;20316;-77
2023/06/19 03:20:12;;;;;;;10.65;9.57;;;;;;;20.83;100.00;98510.13;5068776;28;20224;-77
2023/06/19 03:22:43;;;;;;;10.20;9.30;;;;;;;20.73;100.00;98502.28;5066767;28;20196;-77
2023/06/19 03:25:11;;;;;;;10.75;9.75;;;;;;;20.84;100.00;98504.59;5060907;28;20206;-77
2023/06/19 03:27:41;;;;;;;11.10;9.75;;;;;;;20.98;100.00;98508.34;5062063;28;20228;-77
2023/06/19 03:30:12;;;;;;;10.27;8.98;;;;;;;20.98;100.00;98497.56;5091398;28;20265;-77
2023/06/19 03:32:41;;;;;;;10.88;9.77;;;;;;;20.87;100.00;98503.38;5130247;28;20186;-77
2023/06/19 03:35:10;;;;;;;10.23;9.23;;;;;;;20.69;100.00;98514.44;5122724;28;20194;-77
2023/06/19 03:37:38;;;;;;;10.60;9.30;;;;;;;20.74;100.00;98519.28;5125611;28;20218;-76
2023/06/19 03:40:13;;;;;;;10.27;9.38;;;;;;;20.70;100.00;98528.72;5125923;28;20194;-77
2023/06/19 03:42:42;;;;;;;10.75;9.75;;;;;;;20.50;100.00;98539.94;5131729;27;20231;-76
2023/06/19 03:45:12;;;;;;;12.20;10.20;;;;;;;20.43;100.00;98547.03;5125100;27;20190;-77
2023/06/19 03:47:40;;;;;;;11.75;10.52;;;;;;;19.95;100.00;98558.78;5126947;27;20194;-76
2023/06/19 03:50:09;;;;;;;12.65;10.05;;;;;;;19.98;100.00;98558.47;5128107;27;20198;-77
2023/06/19 03:52:48;;;;;;;11.23;10.00;;;;;;;19.98;100.00;98567.38;5128871;27;20557;-77
2023/06/19 03:55:21;;;;;;;10.93;9.70;;;;;;;20.19;100.00;98576.72;5125744;27;20664;-76
2023/06/19 03:57:52;;;;;;;15.45;11.57;;;;;;;20.17;100.00;98570.66;5095908;27;20656;-76
2023/06/19 04:00:22;;;;;;;14.48;12.48;;;;;;;20.22;100.00;98592.50;5126733;27;20242;-76
2023/06/19 04:02:51;;;;;;;14.63;12.55;;;;;;;20.05;100.00;98596.25;5126057;27;20279;-76
2023/06/19 04:05:20;;;;;;;15.95;13.93;;;;;;;20.10;100.00;98594.72;5127494;27;20308;-76
2023/06/19 04:07:50;;;;;;;16.40;13.63;;;;;;;20.24;100.00;98604.75;5129285;27;20199;-75
2023/06/19 04:10:20;;;;;;;16.15;13.85;;;;;;;20.17;100.00;98597.53;5125396;27;20186;-75
2023/06/19 04:12:49;;;;;;;14.60;12.98;;;;;;;20.16;100.00;98607.47;5133315;27;20224;-75
2023/06/19 04:15:17;;;;;;;15.48;13.18;;;;;;;20.16;100.00;98612.00;5121945;27;20202;-76
2023/06/19 04:17:46;;;;;;;15.70;12.65;;;;;;;20.22;100.00;98614.00;5128970;27;20243;-75
2023/06/19 04:20:14;;;;;;;13.75;12.35;;;;;;;20.33;100.00;98610.94;5124026;27;20204;-76
2023/06/19 04:22:42;;;;;;;13.90;12.50;;;;;;;20.45;100.00;98614.13;5132082;27;20199;-75
2023/06/19 04:25:12;;;;;;;13.27;11.88;;;;;;;20.49;100.00;98613.63;5127000;27;20194;-76
2023/06/19 04:27:44;;;;;;;13.20;11.90;;;;;;;20.68;100.00;98600.75;5126100;27;20284;-76
2023/06/19 04:30:13;;;;;;;14.23;11.65;;;;;;;20.75;100.00;98599.88;5126845;27;20198;-76
2023/06/19 04:32:42;;;;;;;13.95;11.68;;;;;;;20.46;100.00;98621.19;5123019;27;20202;-76
2023/06/19 04:35:11;;;;;;;13.05;11.85;;;;;;;20.40;100.00;98625.38;5123764;27;20194;-76
2023/06/19 04:37:40;;;;;;;13.68;11.73;;;;;;;20.43;100.00;98624.22;5131437;27;20249;-76
2023/06/19 04:40:10;;;;;;;12.32;10.95;;;;;;;20.70;100.00;98617.56;5130319;27;20301;-75
2023/06/19 04:42:41;;;;;;;12.45;11.18;;;;;;;20.88;100.00;98618.13;5125005;27;20228;-76
2023/06/19 04:45:10;;;;;;;14.13;12.32;;;;;;;20.98;100.00;98626.81;5127796;27;20194;-76
2023/06/19 04:47:39;;;;;;;13.90;12.60;;;;;;;21.12;100.00;98627.91;5131539;27;20312;-76
2023/06/19 04:50:20;;;;;;;13.05;11.25;;;;;;;21.42;100.00;98616.28;5129611;27;20194;-76
2023/06/19 04:52:50;;;;;;;12.95;10.93;;;;;;;21.47;100.00;98622.97;5125354;27;20202;-76
2023/06/19 04:55:20;;;;;;;12.57;11.27;;;;;;;21.48;100.00;98621.97;5124080;27;20205;-76
2023/06/19 04:57:51;;;;;;;12.57;11.27;;;;;;;21.66;100.00;98625.19;5131573;27;20190;-76
2023/06/19 05:00:23;;;;;;;13.00;11.48;;;;;;;21.81;100.00;98635.97;5124028;27;20218;-76
2023/06/19 05:02:52;;;;;;;12.82;11.52;;;;;;;21.71;100.00;98642.50;5048481;28;20279;-76
2023/06/19 05:05:20;;;;;;;12.88;11.57;;;;;;;21.79;100.00;98646.94;5045614;28;20576;-76
2023/06/19 05:07:51;;;;;;;12.45;11.23;;;;;;;21.59;100.00;98660.09;5048850;28;20197;-76
2023/06/19 05:10:20;;;;;;;14.77;12.48;;;;;;;21.43;100.00;98673.72;5043593;28;20710;-76
2023/06/19 05:12:51;;;;;;;15.95;12.07;;;;;;;21.42;100.00;98672.88;5033862;28;20251;-76
2023/06/19 05:15:19;;;;;;;11.90;10.77;;;;;;;21.61;100.00;98663.44;5046010;28;20220;-76
2023/06/19 05:17:48;;;;;;;13.85;10.77;;;;;;;21.64;100.00;98664.97;5046184;28;20240;-76
2023/06/19 05:20:16;;;;;;;12.60;11.40;;;;;;;21.82;100.00;98661.94;5039948;28;20245;-76
2023/06/19 05:22:45;;;;;;;11.15;9.95;;;;;;;21.98;100.00;98662.63;5041497;28;20223;-78
2023/06/19 05:25:13;;;;;;;12.57;9.57;;;;;;;21.91;100.00;98659.00;5041541;28;20193;-77
2023/06/19 05:27:45;;;;;;;10.25;9.20;;;;;;;21.88;100.00;98655.81;5089460;27;20216;-77
2023/06/19 05:30:15;;;;;;;11.73;8.65;;;;;;;21.96;100.00;98656.56;5127537;27;20194;-76
2023/06/19 05:32:44;;;;;;;8.23;7.47;;;;;;;21.99;100.00;98658.06;5126191;27;20209;-77
2023/06/19 05:35:12;;;;;;;8.00;7.20;;;;;;;22.18;100.00;98656.72;5126371;27;20202;-77
2023/06/19 05:37:44;;;;;;;8.20;7.32;;;;;;;22.39;100.00;98664.09;5126471;27;20228;-77
2023/06/19 05:40:12;;;;;;;8.40;7.00;;;;;;;22.18;100.00;98662.13;5048685;28;20240;-76
2023/06/19 05:42:41;;;;;;;9.82;7.82;;;;;;;22.02;100.00;98656.88;5002802;28;20192;-77
2023/06/19 05:45:10;;;;;;;10.75;7.85;;;;;;;22.15;100.00;98665.19;5038652;28;20201;-77
2023/06/19 05:47:40;;;;;;;11.55;8.38;;;;;;;22.20;100.00;98673.59;5040002;28;20236;-76
2023/06/19 05:50:08;;;;;;;9.90;8.90;;;;;;;22.50;100.00;98674.44;5037904;28;20274;-77
2023/06/19 05:52:41;;;;;;;10.32;8.55;;;;;;;22.57;100.00;98675.34;4999311;28;20197;-77
2023/06/19 05:55:10;;;;;;;10.60;7.70;;;;;;;22.55;100.00;98670.13;5048919;28;20648;-77
2023/06/19 05:57:39;;;;;;;8.55;7.55;;;;;;;22.53;100.00;98671.34;5059507;27;20187;-77
2023/06/19 06:00:13;;;;;;;10.40;7.60;;;;;;;22.65;100.00;98664.47;5128703;27;20226;-77
2023/06/19 06:02:43;;;;;;;9.13;7.85;;;;;;;22.46;100.00;98676.66;5127985;27;20186;-76
2023/06/19 06:05:13;;;;;;;8.35;7.55;;;;;;;22.78;100.00;98680.84;5121833;27;20232;-77
2023/06/19 06:07:41;;;;;;;12.18;7.72;;;;;;;22.83;100.00;98674.88;5134482;27;20664;-77
2023/06/19 06:10:11;;;;;;;9.10;8.18;;;;;;;22.93;100.00;98683.53;5117467;27;20201;-76
2023/06/19 06:12:41;;;;;;;11.65;10.55;;;;;;;22.86;100.00;98679.91;5126177;27;20198;-77
2023/06/19 06:15:11;;;;;;;12.15;10.93;;;;;;;22.93;100.00;98682.72;5123065;27;20269;-77
2023/06/19 06:17:39;;;;;;;11.73;10.25;;;;;;;22.93;100.00;98688.13;5096180;27;20250;-77
2023/06/19 06:20:12;;;;;;;12.70;10.38;;;;;;;22.81;100.00;98690.44;5129977;27;20214;-77
2023/06/19 06:22:41;;;;;;;10.27;9.18;;;;;;;22.60;100.00;98688.50;5126975;27;20285;-77
2023/06/19 06:25:11;;;;;;;10.00;9.10;;;;;;;22.72;100.00;98684.28;5134242;27;20197;-77
2023/06/19 06:27:41;;;;;;;11.35;9.10;;;;;;;22.71;100.00;98682.63;5128589;27;20206;-77
2023/06/19 06:30:11;;;;;;;10.57;9.50;;;;;;;22.67;100.00;98688.56;5128471;27;20664;-77
2023/06/19 06:32:40;;;;;;;8.85;7.90;;;;;;;22.80;100.00;98696.88;5120801;27;20225;-77
2023/06/19 06:35:10;;;;;;;5.97;5.38;;;;;;;22.79;100.00;98712.22;5129700;27;20661;-76
2023/06/19 06:37:38;;;;;;;6.47;5.80;;;;;;;22.40;100.00;98698.16;5120300;27;20218;-77
2023/06/19 06:40:10;;;;;;;6.30;5.38;;;;;;;22.51;100.00;98698.53;5130307;27;20214;-76
2023/06/19 06:42:40;;;;;;;5.78;5.28;;;;;;;22.70;100.00;98704.41;5128752;27;20282;-76
2023/06/19 06:45:09;;;;;;;5.93;5.32;;;;;;;22.59;100.00;98718.38;5120624;27;20209;-77
2023/06/19 06:47:40;;;;;;;7.15;5.45;;;;;;;22.50;100.00;98720.34;5128514;27;20194;-76
2023/06/19 06:50:12;;;;;;;6.22;5.63;;;;;;;22.90;100.00;98726.31;5125857;27;20190;-77
2023/06/19 06:52:40;;;;;;;5.63;5.13;;;;;;;22.59;100.00;98715.69;5124820;27;20214;-77
2023/06/19 06:55:10;;;;;;;5.95;5.45;;;;;;;22.87;100.00;98721.25;5127902;27;20202;-77
2023/06/19 06:57:39;;;;;;;6.10;5.55;;;;;;;23.17;100.00;98714.00;5130442;27;20242;-76
2023/06/19 07:00:11;;;;;;;5.72;5.22;;;;;;;23.19;100.00;98711.94;5133395;28;20237;-77
2023/06/19 07:02:40;;;;;;;5.53;5.03;;;;;;;23.13;100.00;98711.66;5119034;28;20282;-77
2023/06/19 07:05:11;;;;;;;5.75;5.10;;;;;;;23.25;100.00;98709.28;5127731;28;20442;-76
2023/06/19 07:07:40;;;;;;;5.97;5.40;;;;;;;23.31;100.00;98699.59;5127329;28;20203;-76
2023/06/19 07:10:10;;;;;;;6.45;5.45;;;;;;;23.26;100.00;98702.00;5130697;28;20194;-77
2023/06/19 07:12:45;;;;;;;6.20;5.53;;;;;;;23.21;100.00;98713.41;5127995;28;20733;-76
2023/06/19 07:15:14;;;;;;;8.18;5.72;;;;;;;23.05;100.00;98719.00;5129722;28;20197;-76
2023/06/19 07:17:42;;;;;;;6.53;5.55;;;;;;;23.19;100.00;98723.56;5126802;27;20210;-77
2023/06/19 07:20:13;;;;;;;5.63;5.05;;;;;;;23.06;100.00;98720.69;5133265;27;20682;-76
2023/06/19 07:22:42;;;;;;;7.80;5.40;;;;;;;23.14;100.00;98734.94;5130442;27;20278;-76
2023/06/19 07:25:12;;;;;;;5.75;5.18;;;;;;;23.09;100.00;98725.75;5123316;27;20209;-76
2023/06/19 07:27:41;;;;;;;5.35;4.85;;;;;;;23.06;100.00;98742.31;5124996;27;20276;-76
2023/06/19 07:30:11;;;;;;;5.50;5.00;;;;;;;23.22;100.00;98720.47;5133094;27;20190;-76
2023/06/19 07:32:44;;;;;;;6.15;5.00;;;;;;;23.23;100.00;98719.44;5130111;27;20267;-76
2023/06/19 07:35:14;;;;;;;5.22;4.72;;;;;;;23.42;100.00;98718.84;5132172;27;20243;-77
2023/06/19 07:37:42;;;;;;;5.82;5.30;;;;;;;23.14;100.00;98720.59;5137052;27;20225;-76
2023/06/19 07:40:12;;;;;;;5.53;5.03;;;;;;;23.32;100.00;98707.50;5129602;27;20220;-76
2023/06/19 07:42:41;;;;;;;5.32;4.85;;;;;;;23.50;100.00;98704.38;5129347;27;20222;-77
2023/06/19 07:45:13;;;;;;;5.35;4.93;;;;;;;23.70;100.00;98716.25;5130339;27;20194;-76
2023/06/19 07:47:44;;;;;;;5.32;4.90;;;;;;;23.81;100.00;98723.00;5128108;27;20187;-76
2023/06/19 07:50:14;;;;;;;6.10;5.50;;;;;;;23.74;100.00;98723.97;5128217;27;20194;-77
2023/06/19 07:52:43;;;;;;;6.05;5.45;;;;;;;23.48;100.00;98719.97;5128915;27;20212;-76
2023/06/19 07:55:12;;;;;;;7.97;5.53;;;;;;;23.69;100.00;98732.69;5121235;27;20198;-77
2023/06/19 07:57:40;;;;;;;5.90;5.40;;;;;;;23.40;100.00;98726.31;5127544;27;20194;-77
2023/06/19 08:00:12;;;;;;;6.57;5.97;;;;;;;24.05;100.00;98729.91;5129501;27;20195;-77
2023/06/19 08:02:43;;;;;;;6.10;5.35;;;;;;;24.25;100.00;98738.19;5130362;27;20191;-77
2023/06/19 08:05:14;;;;;;;6.22;5.22;;;;;;;24.62;100.00;98733.50;5135681;27;20275;-77
2023/06/19 08:07:43;;;;;;;6.53;5.82;;;;;;;23.90;100.00;98740.78;5134800;27;20637;-77
2023/06/19 08:10:12;;;;;;;8.90;5.80;;;;;;;23.91;100.00;98752.44;5129890;27;20217;-77
2023/06/19 08:12:42;;;;;;;5.53;4.90;;;;;;;23.42;100.00;98758.56;5127998;27;20649;-78
2023/06/19 08:15:11;;;;;;;4.90;4.50;;;;;;;23.81;100.00;98758.19;5133647;27;20293;-76
2023/06/19 08:17:40;;;;;;;5.25;4.38;;;;;;;23.17;100.00;98749.13;5093354;28;20375;-77
2023/06/19 08:20:09;;;;;;;5.32;4.82;;;;;;;23.50;100.00;98747.63;5082958;28;20241;-76
2023/06/19 08:22:39;;;;;;;4.85;4.43;;;;;;;23.80;100.00;98755.66;5080736;28;20199;-77
2023/06/19 08:25:08;;;;;;;5.82;4.97;;;;;;;23.61;100.00;98749.03;5087995;28;20200;-76
2023/06/19 08:27:37;;;;;;;7.47;4.88;;;;;;;23.74;100.00;98761.84;5085034;28;20195;-77
2023/06/19 08:30:06;;;;;;;5.32;4.78;;;;;;;23.42;100.00;98767.50;5080841;28;20305;-77
2023/06/19 08:32:35;;;;;;;4.82;4.43;;;;;;;23.42;100.00;98762.09;5085134;28;20221;-76
2023/06/19 08:35:04;;;;;;;6.70;4.85;;;;;;;23.26;100.00;98769.56;5087450;27;20296;-76
2023/06/19 08:37:32;;;;;;;5.07;4.43;;;;;;;23.53;100.00;98760.75;5090164;28;20234;-77
2023/06/19 08:40:03;;;;;;;8.68;5.43;;;;;;;23.49;100.00;98772.16;5090941;28;20386;-77
2023/06/19 08:42:32;;;;;;;8.02;5.55;;;;;;;23.91;100.00;98768.69;5090299;28;20258;-77
2023/06/19 08:45:00;;;;;;;5.57;5.00;;;;;;;24.10;100.00;98778.84;5086662;28;20206;-77
2023/06/19 08:47:31;;;;;;;5.38;4.55;;;;;;;23.71;100.00;98760.38;5091677;28;20196;-76
2023/06/19 08:50:01;;;;;;;5.05;4.60;;;;;;;23.86;100.00;98758.44;5089899;28;20278;-77
2023/06/19 08:52:30;;;;;;;4.63;4.22;;;;;;;24.12;100.00;98765.97;5028416;28;20198;-77
2023/06/19 08:54:58;;;;;;;6.03;4.63;;;;;;;24.14;100.00;98774.75;5030018;28;20193;-76
2023/06/19 08:57:40;;;;;;;5.00;4.50;;;;;;;23.57;100.00;98783.69;5052202;28;20205;-76
2023/06/19 09:00:10;;;;;;;5.88;4.30;;;;;;;23.79;100.00;98779.19;5036762;28;20197;-77
2023/06/19 09:02:43;;;;;;;6.43;4.95;;;;;;;23.38;100.00;98784.31;5045787;28;20223;-76
2023/06/19 09:05:20;;;;;;;4.90;4.50;;;;;;;23.82;100.00;98775.25;5047742;28;20216;-77
2023/06/19 09:08:06;;;;;;;5.95;4.57;;;;;;;24.31;100.00;98788.84;5023963;28;20209;-77
2023/06/19 09:10:34;;;;;;;6.60;4.45;;;;;;;24.49;100.00;98791.09;5025953;28;20209;-76
2023/06/19 09:13:06;;;;;;;5.32;4.55;;;;;;;24.06;100.00;98806.50;5042206;28;20250;-76
2023/06/19 09:15:36;;;;;;;5.95;5.35;;;;;;;23.61;100.00;98790.41;5048601;28;20643;-76
2023/06/19 09:18:07;;;;;;;6.50;5.10;;;;;;;24.18;100.00;98797.69;5047731;28;20201;-76
2023/06/19 09:20:41;;;;;;;5.85;5.05;;;;;;;24.33;100.00;98792.22;5049772;28;20193;-77
2023/06/19 09:23:10;;;;;;;5.43;4.60;;;;;;;24.62;100.00;98787.66;5068063;28;20251;-77
2023/06/19 09:25:47;;;;;;;4.82;4.43;;;;;;;24.87;100.00;98799.69;5107912;28;20230;-77
2023/06/19 09:28:24;;;;;;;5.85;5.05;;;;;;;24.36;100.00;98799.13;5109333;28;20244;-77
2023/06/19 09:30:54;;;;;;;5.32;4.82;;;;;;;24.32;100.00;98795.09;5106274;28;20275;-76
2023/06/19 09:33:23;;;;;;;5.20;4.70;;;;;;;24.11;100.00;98790.53;5104220;28;20205;-76
2023/06/19 09:35:51;;;;;;;5.35;4.25;;;;;;;24.63;100.00;98778.50;5106902;28;20203;-77
2023/06/19 09:38:22;;;;;;;5.00;4.45;;;;;;;24.89;100.00;98780.53;5109474;28;20238;-76
2023/06/19 09:40:53;;;;;;;4.93;4.43;;;;;;;25.33;100.00;98782.88;5109597;28;20219;-77
2023/06/19 09:43:27;;;;;;;5.25;4.72;;;;;;;25.60;100.00;98781.97;5105324;28;20221;-77
2023/06/19 09:45:59;;;;;;;5.05;4.65;;;;;;;25.52;100.00;98779.41;5102207;28;20203;-77
2023/06/19 09:48:31;;;;;;;5.28;4.78;;;;;;;24.58;100.00;98786.38;5104823;28;20215;-76
2023/06/19 09:51:11;;;;;;;4.95;4.45;;;;;;;24.78;100.00;98781.91;5104929;28;20233;-77
2023/06/19 09:53:41;;;;;;;6.57;4.55;;;;;;;24.69;100.00;98781.25;5107334;28;20339;-77
2023/06/19 09:56:10;;;;;;;6.13;4.32;;;;;;;24.65;100.00;98779.13;5103689;28;20202;-77
2023/06/19 09:58:44;;;;;;;5.65;4.68;;;;;;;25.22;100.00;98780.75;5110601;28;20206;-77
2023/06/19 10:01:13;;;;;;;6.22;4.68;;;;;;;25.78;100.00;98776.00;5070643;28;20281;-76
2023/06/19 10:03:43;;;;;;;6.72;4.78;;;;;;;25.49;100.00;98782.53;5107320;28;20635;-77
2023/06/19 10:06:16;;;;;;;4.80;4.35;;;;;;;25.78;100.00;98772.44;5100850;28;20204;-77
2023/06/19 10:08:46;;;;;;;5.38;4.35;;;;;;;26.25;100.00;98780.44;5010064;28;20205;-77
2023/06/19 10:11:15;;;;;;;4.82;4.43;;;;;;;26.27;100.00;98773.97;5000624;28;20228;-77
2023/06/19 10:13:45;;;;;;;5.32;4.57;;;;;;;25.44;100.00;98767.91;5004449;28;20343;-77
2023/06/19 10:16:24;;;;;;;5.55;4.43;;;;;;;25.30;100.00;98772.47;5003112;28;20206;-77
2023/06/19 10:18:58;;;;;;;5.10;4.60;;;;;;;25.33;100.00;98777.47;4953046;28;20208;-77
2023/06/19 10:21:26;;;;;;;5.40;4.07;;;;;;;25.95;100.00;98771.81;4951519;28;20196;-76
2023/06/19 10:23:56;;;;;;;7.40;4.07;;;;;;;26.35;100.00;98771.03;4945975;28;20204;-77
2023/06/19 10:26:32;;;;;;;6.45;4.05;;;;;;;26.63;100.00;98771.66;4946401;29;20211;-76
2023/06/19 10:29:04;;;;;;;4.07;3.78;;;;;;;26.50;100.00;98777.13;4952577;28;20210;-77
2023/06/19 10:31:32;;;;;;;3.92;3.60;;;;;;;26.55;100.00;98777.34;4946420;28;20200;-77
2023/06/19 10:34:01;;;;;;;5.25;4.32;;;;;;;25.79;100.00;98782.25;4943308;29;20197;-77
2023/06/19 10:36:30;;;;;;;4.40;4.00;;;;;;;26.50;100.00;98777.13;4960882;28;20229;-77
2023/06/19 10:38:58;;;;;;;5.07;4.57;;;;;;;26.80;100.00;98772.91;5007007;28;20241;-77
2023/06/19 10:41:28;;;;;;;4.97;4.47;;;;;;;26.57;100.00;98775.25;5004850;28;20230;-77
2023/06/19 10:43:58;;;;;;;6.03;4.72;;;;;;;26.18;100.00;98779.59;5006691;28;20245;-77
2023/06/19 10:46:33;;;;;;;4.50;4.10;;;;;;;26.57;100.00;98774.41;5020675;28;20225;-77
2023/06/19 10:49:04;;;;;;;4.65;4.25;;;;;;;26.00;100.00;98771.22;5021107;28;20247;-76
2023/06/19 10:51:35;;;;;;;5.35;4.30;;;;;;;25.14;100.00;98783.63;5020546;28;20205;-76
2023/06/19 10:54:05;;;;;;;4.90;4.50;;;;;;;25.28;100.00;98777.22;5119551;27;20198;-77
2023/06/19 10:56:35;;;;;;;5.30;4.35;;;;;;;25.86;100.00;98766.78;5125476;27;20220;-77
2023/06/19 10:59:06;;;;;;;4.50;4.10;;;;;;;25.15;100.00;98764.44;5122277;28;20201;-76
2023/06/19 11:01:38;;;;;;;4.57;4.18;;;;;;;25.23;100.00;98774.28;5123374;28;20672;-76
2023/06/19 11:04:08;;;;;;;5.45;4.45;;;;;;;25.79;100.00;98760.53;5125149;28;20453;-77
2023/06/19 11:06:40;;;;;;;6.30;4.30;;;;;;;26.01;100.00;98753.06;5126649;28;20277;-76
2023/06/19 11:09:11;;;;;;;5.70;3.97;;;;;;;26.87;100.00;98755.75;5133479;28;20530;-77
2023/06/19 11:11:41;;;;;;;6.63;4.50;;;;;;;27.03;100.00;98749.88;5127650;28;20198;-77
2023/06/19 11:14:12;;;;;;;6.55;4.30;;;;;;;27.20;99.90;98742.06;5130845;28;20190;-77
2023/06/19 11:16:44;;;;;;;5.38;4.53;;;;;;;27.22;100.00;98740.81;5126039;28;20198;-77
2023/06/19 11:19:16;;;;;;;4.40;4.00;;;;;;;28.03;93.24;98742.06;5133423;28;20497;-78
2023/06/19 11:21:48;;;;;;;5.10;4.35;;;;;;;28.23;92.58;98737.28;5129198;28;20222;-77
2023/06/19 11:24:17;;;;;;;4.80;4.18;;;;;;;28.58;88.70;98736.81;5130392;28;20282;-77
2023/06/19 11:26:50;;;;;;;4.65;4.22;;;;;;;27.81;92.31;98736.97;5128880;28;20186;-77
2023/06/19 11:29:21;;;;;;;4.88;4.22;;;;;;;28.06;92.16;98736.16;5124902;28;20222;-77
2023/06/19 11:31:53;;;;;;;5.60;3.95;;;;;;;27.92;90.34;98736.28;5126126;28;20201;-77
2023/06/19 11:34:32;;;;;;;3.97;3.67;;;;;;;27.58;90.96;98732.03;5133434;28;20218;-77